Time;durP1;ratioP1;P1;durP2;ratioP2;P2;SDS_P1;SDS_P2;PMS_P1;PMS_P2;Temp;Humidity;BMP_temperature;BMP_pressure;BME280_temperature;BME280_humidity;BME280_pressure;Samples;Min_cycle;Max_cycle;Signal;HPM_P1;HPM_P2
2021/06/02 00:02:09;;;;;;;;;;;;;;;13.10;63.50;101121.22;1732990;81;20220;-74
2021/06/02 00:04:45;;;;;;;;;;;;;;;13.06;63.65;101121.30;1740858;82;20190;-74
2021/06/02 00:07:20;;;;;;;;;;;;;;;13.07;63.82;101125.62;1733893;80;20142;-74
2021/06/02 00:09:46;;;;;;;;;;;;;;;13.11;63.88;101128.57;1738173;81;20123;-74
2021/06/02 00:12:13;;;;;;;;;;;;;;;13.14;63.95;101128.52;1737416;80;20198;-74
2021/06/02 00:14:40;;;;;;;;;;;;;;;13.17;64.01;101131.95;1741690;82;20232;-74
2021/06/02 00:17:07;;;;;;;;;;;;;;;13.21;64.02;101130.16;1736992;81;20171;-74
2021/06/02 00:19:33;;;;;;;;;;;;;;;13.21;64.09;101137.50;1744977;81;20135;-74
2021/06/02 00:22:00;;;;;;;;;;;;;;;13.24;64.17;101128.80;1742974;80;20128;-74
2021/06/02 00:24:26;;;;;;;;;;;;;;;13.25;64.23;101128.77;1743968;82;20095;-74
2021/06/02 00:26:54;;;;;;;;;;;;;;;13.29;64.26;101126.11;1718820;81;20095;-74
2021/06/02 00:29:22;;;;;;;;;;;;;;;13.29;64.30;101124.38;1718294;82;20105;-74
2021/06/02 00:31:48;;;;;;;;;;;;;;;13.30;64.35;101124.78;1734904;80;20147;-74
2021/06/02 00:34:14;;;;;;;;;;;;;;;13.34;64.46;101122.55;1745043;82;20102;-74
2021/06/02 00:36:43;;;;;;;;;;;;;;;13.36;64.48;101122.52;1731814;81;20129;-74
2021/06/02 00:39:09;;;;;;;;;;;;;;;13.39;64.51;101130.25;1731279;80;20091;-74
2021/06/02 00:41:37;;;;;;;;;;;;;;;13.43;64.54;101133.20;1731030;82;20093;-74
2021/06/02 00:44:07;;;;;;;;;;;;;;;13.47;64.50;101138.75;1733355;82;20105;-74
2021/06/02 00:46:36;;;;;;;;;;;;;;;13.49;64.52;101138.28;1730467;82;20123;-74
2021/06/02 00:49:01;;;;;;;;;;;;;;;13.51;64.56;101137.36;1742182;80;20169;-74
2021/06/02 00:51:27;;;;;;;;;;;;;;;13.53;64.58;101137.30;1735968;82;20189;-74
2021/06/02 00:53:55;;;;;;;;;;;;;;;13.53;64.61;101136.00;1735672;82;20091;-74
2021/06/02 00:56:24;;;;;;;;;;;;;;;13.55;64.65;101144.63;1741985;81;20107;-74
2021/06/02 00:58:51;;;;;;;;;;;;;;;13.56;64.69;101140.70;1733031;82;20101;-73
2021/06/02 01:01:17;;;;;;;;;;;;;;;13.57;64.67;101138.95;1728764;82;20137;-74
2021/06/02 01:03:44;;;;;;;;;;;;;;;13.57;64.72;101131.16;1747338;80;20407;-74
2021/06/02 01:06:10;;;;;;;;;;;;;;;13.61;64.76;101140.61;1740655;82;20443;-74
2021/06/02 01:08:37;;;;;;;;;;;;;;;13.62;64.78;101139.72;1731694;82;20121;-74
2021/06/02 01:11:04;;;;;;;;;;;;;;;13.63;64.74;101141.43;1738201;80;20094;-74
2021/06/02 01:13:33;;;;;;;;;;;;;;;13.65;64.86;101140.95;1742212;82;20131;-74
2021/06/02 01:16:01;;;;;;;;;;;;;;;13.65;64.82;101143.55;1742851;80;20115;-74
2021/06/02 01:18:26;;;;;;;;;;;;;;;13.69;64.82;101145.65;1737663;81;20127;-74
2021/06/02 01:20:53;;;;;;;;;;;;;;;13.70;64.79;101148.66;1731395;81;20125;-74
2021/06/02 01:23:19;;;;;;;;;;;;;;;13.70;64.76;101150.81;1730816;81;21103;-74
2021/06/02 01:25:45;;;;;;;;;;;;;;;13.71;64.82;101157.73;1730257;82;20114;-74
2021/06/02 01:28:11;;;;;;;;;;;;;;;13.75;64.80;101158.52;1742714;82;20225;-74
2021/06/02 01:30:37;;;;;;;;;;;;;;;13.78;64.79;101163.66;1742466;80;20185;-74
2021/06/02 01:33:26;;;;;;;;;;;;;;;13.79;64.78;101171.42;1745052;81;20178;-74
2021/06/02 01:36:07;;;;;;;;;;;;;;;13.80;64.78;101168.38;1741395;82;20493;-74
2021/06/02 01:38:39;;;;;;;;;;;;;;;13.81;64.74;101173.99;1736208;81;20172;-74
2021/06/02 01:41:29;;;;;;;;;;;;;;;13.83;64.82;101170.47;1730029;80;20170;-74
2021/06/02 01:44:24;;;;;;;;;;;;;;;13.85;64.75;101171.75;1731375;81;20204;-74
2021/06/02 01:47:22;;;;;;;;;;;;;;;13.88;64.79;101176.88;1713621;82;20295;-74
2021/06/02 01:50:07;;;;;;;;;;;;;;;13.88;64.76;101179.04;1741939;81;20213;-74
2021/06/02 01:52:37;;;;;;;;;;;;;;;13.94;64.86;101183.25;1739189;82;20226;-74
2021/06/02 01:55:29;;;;;;;;;;;;;;;13.97;64.86;101179.30;1735851;80;20587;-74
2021/06/02 01:58:21;;;;;;;;;;;;;;;14.00;64.86;101187.48;1742737;81;20182;-74
2021/06/02 02:00:56;;;;;;;;;;;;;;;13.99;64.89;101193.13;1742084;82;20167;-74
2021/06/02 02:03:54;;;;;;;;;;;;;;;14.01;64.94;101190.48;1740836;82;20485;-74
2021/06/02 02:06:57;;;;;;;;;;;;;;;13.99;64.90;101195.72;1681524;84;20259;-74
2021/06/02 02:09:36;;;;;;;;;;;;;;;13.99;65.00;101195.72;1735448;82;20533;-74
2021/06/02 02:12:17;;;;;;;;;;;;;;;13.98;65.02;101199.66;1738454;80;20238;-74
2021/06/02 02:15:20;;;;;;;;;;;;;;;14.00;65.10;101200.48;1736041;81;20178;-74
2021/06/02 02:17:56;;;;;;;;;;;;;;;14.00;65.01;101201.77;1728457;82;20182;-74
2021/06/02 02:20:29;;;;;;;;;;;;;;;13.97;64.87;101198.80;1723809;81;20418;-74
2021/06/02 02:23:14;;;;;;;;;;;;;;;13.96;65.03;101198.83;1742681;80;20099;-74
2021/06/02 02:25:55;;;;;;;;;;;;;;;13.95;65.04;101198.41;1729319;82;20123;-74
2021/06/02 02:28:42;;;;;;;;;;;;;;;13.96;65.10;101202.28;1744896;81;20091;-74
2021/06/02 02:31:43;;;;;;;;;;;;;;;14.00;65.13;101209.58;1729571;80;20098;-74
2021/06/02 02:34:34;;;;;;;;;;;;;;;14.00;65.04;101213.48;1744448;82;20138;-74
2021/06/02 02:37:10;;;;;;;;;;;;;;;14.00;65.05;101217.38;1729745;82;20120;-74
2021/06/02 02:39:42;;;;;;;;;;;;;;;13.99;65.10;101219.12;1741312;80;20446;-74
2021/06/02 02:42:23;;;;;;;;;;;;;;;14.00;65.08;101226.03;1750053;81;20138;-74
2021/06/02 02:44:55;;;;;;;;;;;;;;;14.00;65.04;101227.34;1746625;80;22064;-74
2021/06/02 02:47:31;;;;;;;;;;;;;;;13.99;65.03;101227.36;1751538;81;20106;-74
2021/06/02 02:50:04;;;;;;;;;;;;;;;13.98;65.04;101231.71;1756665;80;20414;-74
2021/06/02 02:53:02;;;;;;;;;;;;;;;13.97;65.00;101234.34;1744620;80;20102;-74
2021/06/02 02:55:35;;;;;;;;;;;;;;;13.97;65.07;101236.94;1758322;80;20106;-74
2021/06/02 02:58:08;;;;;;;;;;;;;;;13.95;65.05;101239.57;1750232;81;20102;-74
2021/06/02 03:00:37;;;;;;;;;;;;;;;13.94;65.08;101240.45;1755856;81;20106;-74
2021/06/02 03:03:27;;;;;;;;;;;;;;;13.97;65.17;101249.50;1754076;81;20453;-74
2021/06/02 03:06:02;;;;;;;;;;;;;;;13.99;65.16;101254.66;1740530;81;20094;-74
2021/06/02 03:08:34;;;;;;;;;;;;;;;14.01;65.16;101256.35;1744992;81;20102;-74
2021/06/02 03:11:13;;;;;;;;;;;;;;;14.02;65.19;101261.97;1736743;81;20149;-74
2021/06/02 03:14:09;;;;;;;;;;;;;;;14.04;65.21;101271.00;1754498;81;20456;-74
2021/06/02 03:16:37;;;;;;;;;;;;;;;14.06;65.15;101269.23;1757907;81;20149;-74
2021/06/02 03:19:19;;;;;;;;;;;;;;;14.03;65.10;101272.78;1751106;80;20132;-74
2021/06/02 03:22:03;;;;;;;;;;;;;;;14.05;65.11;101277.92;1734734;81;20324;-74
2021/06/02 03:24:33;;;;;;;;;;;;;;;14.04;65.10;101274.46;1743194;80;20477;-74
2021/06/02 03:27:05;;;;;;;;;;;;;;;14.06;65.10;101279.63;1747038;81;20505;-74
2021/06/02 03:29:52;;;;;;;;;;;;;;;14.08;65.13;101275.26;1752277;80;20126;-74
2021/06/02 03:32:53;;;;;;;;;;;;;;;14.11;65.14;101283.00;1746958;80;20202;-74
2021/06/02 03:35:47;;;;;;;;;;;;;;;14.12;65.14;101279.52;1740918;81;20512;-74
2021/06/02 03:38:39;;;;;;;;;;;;;;;14.12;65.09;101284.71;1727456;81;21051;-74
2021/06/02 03:41:27;;;;;;;;;;;;;;;14.12;65.15;101282.97;1751934;81;20161;-74
2021/06/02 03:44:16;;;;;;;;;;;;;;;14.18;65.17;101282.84;1744279;81;20138;-74
2021/06/02 03:47:01;;;;;;;;;;;;;;;14.23;65.18;101288.81;1755798;81;20457;-74
2021/06/02 03:50:00;;;;;;;;;;;;;;;14.26;65.15;101289.20;1755738;81;20146;-74
2021/06/02 03:52:38;;;;;;;;;;;;;;;14.27;65.10;101296.11;1742630;80;20183;-74
2021/06/02 03:55:17;;;;;;;;;;;;;;;14.30;65.08;101299.95;1750652;81;20154;-74
2021/06/02 03:57:55;;;;;;;;;;;;;;;14.35;65.13;101293.36;1752796;80;20489;-75
2021/06/02 04:00:25;;;;;;;;;;;;;;;14.38;65.10;101302.41;1748461;80;20173;-74
2021/06/02 04:03:06;;;;;;;;;;;;;;;14.37;64.99;101301.55;1755014;80;20476;-74
2021/06/02 04:05:51;;;;;;;;;;;;;;;14.38;65.10;101308.46;1756662;80;20129;-74
2021/06/02 04:08:49;;;;;;;;;;;;;;;14.40;65.04;101309.29;1759633;80;20186;-74
2021/06/02 04:11:36;;;;;;;;;;;;;;;14.48;65.15;101313.92;1747365;80;20193;-74
2021/06/02 04:14:05;;;;;;;;;;;;;;;14.53;65.14;101310.78;1747082;80;20618;-74
2021/06/02 04:16:34;;;;;;;;;;;;;;;14.56;65.15;101320.23;1751708;80;20228;-74
2021/06/02 04:19:08;;;;;;;;;;;;;;;14.55;65.14;101320.71;1752819;80;20183;-75
2021/06/02 04:21:36;;;;;;;;;;;;;;;14.58;65.24;101318.46;1746075;81;20199;-74
2021/06/02 04:24:07;;;;;;;;;;;;;;;14.62;65.25;101320.55;1753003;81;20484;-74
2021/06/02 04:26:35;;;;;;;;;;;;;;;14.65;65.22;101326.99;1747111;80;21210;-74
2021/06/02 04:29:03;;;;;;;;;;;;;;;14.65;65.16;101326.99;1754263;80;20658;-74
2021/06/02 04:31:29;;;;;;;;;;;;;;;14.66;65.22;101329.56;1750077;80;20195;-74
2021/06/02 04:33:58;;;;;;;;;;;;;;;14.67;65.22;101336.93;1749853;80;20220;-74
2021/06/02 04:36:26;;;;;;;;;;;;;;;14.66;65.27;101333.91;1762246;80;20721;-74
2021/06/02 04:38:54;;;;;;;;;;;;;;;14.67;65.25;101332.58;1757268;80;20738;-74
2021/06/02 04:41:22;;;;;;;;;;;;;;;14.71;65.41;101334.67;1746958;80;20102;-74
2021/06/02 04:43:49;;;;;;;;;;;;;;;14.75;65.37;101341.53;1739941;81;20462;-74
2021/06/02 04:46:17;;;;;;;;;;;;;;;14.79;65.39;101345.78;1746161;80;20521;-77
2021/06/02 04:48:43;;;;;;;;;;;;;;;14.84;65.49;101343.94;1751181;80;20090;-74
2021/06/02 04:51:15;;;;;;;;;;;;;;;14.90;65.56;101345.10;1730991;80;20212;-74
2021/06/02 04:54:10;;;;;;;;;;;;;;;14.97;65.60;101345.38;1743427;80;20101;-75
2021/06/02 04:57:06;;;;;;;;;;;;;;;15.04;65.53;101348.70;1747449;80;20430;-75
2021/06/02 04:59:51;;;;;;;;;;;;;;;15.15;65.50;101354.05;1749100;80;20426;-75
2021/06/02 05:02:43;;;;;;;;;;;;;;;15.25;65.47;101358.61;1739004;80;20129;-74
2021/06/02 05:05:21;;;;;;;;;;;;;;;15.36;65.66;101365.73;1745201;80;20495;-76
2021/06/02 05:08:08;;;;;;;;;;;;;;;15.61;65.79;101362.53;1740630;80;20521;-75
2021/06/02 05:11:00;;;;;;;;;;;;;;;15.80;65.47;101363.78;1748619;82;20143;-75
2021/06/02 05:13:50;;;;;;;;;;;;;;;15.97;65.47;101369.88;1728994;82;20418;-75
2021/06/02 05:16:51;;;;;;;;;;;;;;;16.19;65.44;101370.98;1748595;82;20114;-75
2021/06/02 05:22:30;;;;;;;;;;;;;;;16.54;65.12;101380.01;1733566;82;20430;-76
2021/06/02 05:25:29;;;;;;;;;;;;;;;16.66;65.22;101382.72;1736102;81;20402;-76
2021/06/02 05:28:07;;;;;;;;;;;;;;;16.81;65.11;101378.81;1752801;80;20117;-75
2021/06/02 05:30:54;;;;;;;;;;;;;;;17.00;65.05;101386.50;1752097;82;20489;-75
2021/06/02 05:33:36;;;;;;;;;;;;;;;17.08;64.83;101387.13;1749718;82;20469;-75
2021/06/02 05:36:21;;;;;;;;;;;;;;;17.15;64.75;101393.88;1742989;80;20496;-74
2021/06/02 05:39:03;;;;;;;;;;;;;;;17.16;64.66;101398.17;1634726;85;21126;-74
2021/06/02 05:41:54;;;;;;;;;;;;;;;17.10;64.54;101398.39;1714102;80;20129;-76
2021/06/02 05:44:47;;;;;;;;;;;;;;;17.09;64.49;101397.13;1753350;81;20489;-75
2021/06/02 05:47:41;;;;;;;;;;;;;;;17.03;64.54;101401.23;1756053;80;20521;-75
2021/06/02 05:50:44;;;;;;;;;;;;;;;17.08;64.65;101404.56;1751847;80;20512;-75
2021/06/02 05:53:38;;;;;;;;;;;;;;;17.15;64.62;101407.40;1745695;81;20533;-76
2021/06/02 05:56:41;;;;;;;;;;;;;;;17.18;64.70;101412.05;1737384;80;20603;-75
2021/06/02 05:59:35;;;;;;;;;;;;;;;17.15;64.33;101413.94;1751949;81;20536;-75
2021/06/02 06:02:38;;;;;;;;;;;;;;;17.13;64.42;101421.82;1747822;81;20194;-75
2021/06/02 06:05:17;;;;;;;;;;;;;;;17.17;64.40;101420.80;1752858;81;20616;-75
2021/06/02 06:08:09;;;;;;;;;;;;;;;17.24;64.46;101423.22;1750326;80;20106;-75
2021/06/02 06:11:06;;;;;;;;;;;;;;;17.31;64.37;101422.12;1758287;80;20426;-76
2021/06/02 06:13:56;;;;;;;;;;;;;;;17.41;64.44;101418.33;1741021;81;20478;-76
2021/06/02 06:16:39;;;;;;;;;;;;;;;17.57;64.35;101421.31;1746795;80;20398;-76
2021/06/02 06:19:14;;;;;;;;;;;;;;;17.67;64.26;101421.00;1710287;81;20406;-76
2021/06/02 06:22:16;;;;;;;;;;;;;;;17.75;64.11;101422.03;1745626;81;20402;-76
2021/06/02 06:24:57;;;;;;;;;;;;;;;18.04;64.30;101419.76;1749279;80;20430;-76
2021/06/02 06:27:48;;;;;;;;;;;;;;;18.32;64.05;101424.41;1755873;80;20442;-76
2021/06/02 06:30:31;;;;;;;;;;;;;;;18.54;64.09;101428.44;1717541;80;20414;-76
2021/06/02 06:32:59;;;;;;;;;;;;;;;18.81;64.10;101430.52;1750615;81;20128;-76
2021/06/02 06:35:26;;;;;;;;;;;;;;;18.98;63.57;101429.89;1755203;80;20442;-76
2021/06/02 06:37:55;;;;;;;;;;;;;;;19.10;63.63;101427.66;1727132;81;20425;-76
2021/06/02 06:40:26;;;;;;;;;;;;;;;19.20;63.50;101436.02;1750442;80;20108;-76
2021/06/02 06:42:55;;;;;;;;;;;;;;;19.24;63.26;101430.17;1740859;81;20119;-76
2021/06/02 06:45:32;;;;;;;;;;;;;;;19.18;63.21;101433.45;1740827;82;20402;-76
2021/06/02 06:48:01;;;;;;;;;;;;;;;19.19;63.09;101436.94;1743615;80;20434;-76
2021/06/02 06:50:27;;;;;;;;;;;;;;;19.18;63.11;101433.92;1745137;82;20123;-76
2021/06/02 06:52:56;;;;;;;;;;;;;;;19.22;63.05;101438.13;1748589;80;20126;-76
2021/06/02 06:55:22;;;;;;;;;;;;;;;19.31;63.06;101442.12;1745904;81;20415;-76
2021/06/02 06:57:49;;;;;;;;;;;;;;;19.38;62.97;101436.59;1717715;82;20095;-75
2021/06/02 07:00:17;;;;;;;;;;;;;;;19.60;63.10;101434.00;1747591;80;20414;-75
2021/06/02 07:02:44;;;;;;;;;;;;;;;19.84;63.02;101446.09;1745180;81;20402;-75
2021/06/02 07:05:11;;;;;;;;;;;;;;;20.03;62.74;101444.88;1742953;80;20125;-75
2021/06/02 07:07:40;;;;;;;;;;;;;;;20.09;62.40;101441.99;1744996;82;20391;-75
2021/06/02 07:10:07;;;;;;;;;;;;;;;20.11;62.51;101445.87;1735363;81;20083;-75
2021/06/02 07:12:36;;;;;;;;;;;;;;;20.09;62.27;101444.62;1740438;80;20119;-75
2021/06/02 07:15:05;;;;;;;;;;;;;;;20.11;62.40;101445.87;1749146;80;20111;-75
2021/06/02 07:17:31;;;;;;;;;;;;;;;20.11;62.33;101437.98;1717576;82;20099;-75
2021/06/02 07:19:59;;;;;;;;;;;;;;;20.20;62.32;101445.94;1743819;80;20107;-75
2021/06/02 07:22:25;;;;;;;;;;;;;;;20.32;62.17;101445.38;1749577;82;20119;-75
2021/06/02 07:24:53;;;;;;;;;;;;;;;20.42;62.16;101449.35;1748659;82;20727;-75
2021/06/02 07:27:21;;;;;;;;;;;;;;;20.55;62.02;101447.89;1745466;80;20115;-75
2021/06/02 07:29:47;;;;;;;;;;;;;;;20.66;61.94;101448.27;1745097;80;20115;-75
2021/06/02 07:32:13;;;;;;;;;;;;;;;20.71;61.71;101447.61;1748712;81;20118;-75
2021/06/02 07:34:40;;;;;;;;;;;;;;;20.71;61.56;101451.55;1730891;82;20094;-75
2021/06/02 07:37:06;;;;;;;;;;;;;;;20.86;61.66;101443.41;1749763;80;20563;-75
2021/06/02 07:39:32;;;;;;;;;;;;;;;21.18;61.84;101441.07;1748499;82;20110;-75
2021/06/02 07:41:58;;;;;;;;;;;;;;;21.70;61.87;101442.06;1744326;80;20105;-75
2021/06/02 07:44:24;;;;;;;;;;;;;;;22.28;61.68;101445.27;1712812;83;20102;-75
2021/06/02 07:46:50;;;;;;;;;;;;;;;22.87;61.19;101445.23;1710691;83;20129;-75
2021/06/02 07:49:16;;;;;;;;;;;;;;;23.09;60.87;101451.48;1710589;83;20117;-75
2021/06/02 07:51:42;;;;;;;;;;;;;;;23.12;60.58;101457.91;1710403;83;20242;-75
2021/06/02 07:54:08;;;;;;;;;;;;;;;23.15;60.33;101463.02;1709260;82;20215;-75
2021/06/02 07:56:40;;;;;;;;;;;;;;;23.30;60.44;101459.53;1709736;83;20185;-75
2021/06/02 07:59:06;;;;;;;;;;;;;;;23.59;60.38;101467.14;1707133;83;20250;-75
2021/06/02 08:01:32;;;;;;;;;;;;;;;24.11;60.46;101465.42;1709130;83;20299;-75
2021/06/02 08:03:58;;;;;;;;;;;;;;;24.57;60.00;101466.17;1709526;82;20161;-75
2021/06/02 08:06:25;;;;;;;;;;;;;;;25.08;59.47;101462.57;1710165;83;20199;-75
2021/06/02 08:08:51;;;;;;;;;;;;;;;25.42;59.16;101460.42;1709621;83;20157;-75
2021/06/02 08:11:17;;;;;;;;;;;;;;;25.54;58.33;101471.04;1710278;83;20302;-75
2021/06/02 08:13:43;;;;;;;;;;;;;;;25.23;58.67;101468.70;1708720;83;20265;-75
2021/06/02 08:16:09;;;;;;;;;;;;;;;25.20;58.67;101482.13;1709370;83;20148;-75
2021/06/02 08:18:35;;;;;;;;;;;;;;;25.13;58.10;101487.42;1710107;83;20188;-75
2021/06/02 08:21:02;;;;;;;;;;;;;;;25.00;57.71;101480.25;1709609;82;20278;-75
2021/06/02 08:23:27;;;;;;;;;;;;;;;24.81;57.65;101488.95;1710265;83;20228;-75
2021/06/02 08:25:53;;;;;;;;;;;;;;;24.72;57.79;101489.52;1707404;83;20187;-75
2021/06/02 08:28:20;;;;;;;;;;;;;;;24.70;57.60;101486.11;1706025;83;20503;-75
2021/06/02 08:30:46;;;;;;;;;;;;;;;24.53;57.27;101488.45;1712464;83;20397;-75
2021/06/02 08:33:12;;;;;;;;;;;;;;;24.45;57.10;101481.92;1709832;83;20125;-75
2021/06/02 08:35:38;;;;;;;;;;;;;;;24.45;57.03;101481.92;1712810;83;20105;-76
2021/06/02 08:38:06;;;;;;;;;;;;;;;24.49;56.94;101472.87;1712530;83;20097;-76
2021/06/02 08:40:32;;;;;;;;;;;;;;;24.52;56.27;101479.30;1712471;83;20098;-76
2021/06/02 08:42:58;;;;;;;;;;;;;;;24.56;56.35;101485.63;1712336;83;20105;-76
2021/06/02 08:45:25;;;;;;;;;;;;;;;24.43;55.44;101481.20;1738883;82;20099;-76
2021/06/02 08:47:51;;;;;;;;;;;;;;;24.50;55.86;101484.67;1741999;81;20126;-76
2021/06/02 08:50:20;;;;;;;;;;;;;;;24.64;55.54;101488.66;1743971;81;20090;-76
2021/06/02 08:52:47;;;;;;;;;;;;;;;24.92;55.22;101489.14;1735378;80;20121;-76
2021/06/02 08:55:18;;;;;;;;;;;;;;;25.53;54.99;101486.56;1743612;81;20090;-76
2021/06/02 08:57:46;;;;;;;;;;;;;;;26.06;54.75;101492.78;1741908;82;20122;-76
2021/06/02 09:00:15;;;;;;;;;;;;;;;26.41;54.42;101486.94;1741853;80;20134;-76
2021/06/02 09:02:43;;;;;;;;;;;;;;;26.54;54.23;101493.06;1743312;82;20119;-76
2021/06/02 09:05:10;;;;;;;;;;;;;;;26.48;54.46;101493.05;1729252;82;20134;-76
2021/06/02 09:07:39;;;;;;;;;;;;;;;26.90;53.97;101499.80;1737261;80;20090;-76
2021/06/02 09:10:07;;;;;;;;;;;;;;;27.54;53.31;101499.17;1737190;82;20107;-76
2021/06/02 09:12:35;;;;;;;;;;;;;;;27.96;53.18;101500.95;1745067;82;20123;-76
2021/06/02 09:15:14;;;;;;;;;;;;;;;28.09;53.11;101504.84;1702442;81;633006;-76
2021/06/02 09:18:03;;;;;;;;;;;;;;;27.84;52.53;101509.84;1637919;86;20110;-76
2021/06/02 09:20:38;;;;;;;;;;;;;;;27.61;52.92;101504.89;1644295;86;20099;-76
2021/06/02 09:23:36;;;;;;;;;;;;;;;27.55;52.27;101506.19;1643609;86;20151;-76
2021/06/02 09:26:14;;;;;;;;;;;;;;;27.15;51.69;101508.20;1640025;86;20164;-76
2021/06/02 09:29:03;;;;;;;;;;;;;;;26.48;51.73;101502.33;1635826;87;20178;-76
2021/06/02 09:31:38;;;;;;;;;;;;;;;25.85;51.79;101510.98;1641462;86;20185;-76
2021/06/02 09:34:08;;;;;;;;;;;;;;;25.38;50.83;101520.67;1637371;87;20159;-76
2021/06/02 09:36:40;;;;;;;;;;;;;;;25.04;50.78;101514.84;1637812;86;20241;-76
2021/06/02 09:39:10;;;;;;;;;;;;;;;24.70;50.75;101521.82;1645461;86;20210;-76
2021/06/02 09:41:54;;;;;;;;;;;;;;;24.34;50.85;101520.46;1636969;86;20204;-76
2021/06/02 09:44:30;;;;;;;;;;;;;;;24.13;50.28;101528.29;1639587;87;20370;-76
2021/06/02 09:47:11;;;;;;;;;;;;;;;23.93;49.81;101529.44;1640047;87;20199;-76
2021/06/02 09:49:47;;;;;;;;;;;;;;;23.81;49.80;101530.16;1644081;86;20099;-76
2021/06/02 09:52:14;;;;;;;;;;;;;;;23.75;49.47;101522.58;1647531;86;20098;-76
2021/06/02 09:54:40;;;;;;;;;;;;;;;23.72;49.45;101526.25;1642061;86;20134;-76
2021/06/02 09:57:11;;;;;;;;;;;;;;;23.69;48.99;101529.06;1669764;85;20115;-76
2021/06/02 09:59:57;;;;;;;;;;;;;;;23.68;49.07;101526.04;1647190;86;20110;-76
2021/06/02 10:02:23;;;;;;;;;;;;;;;23.71;48.99;101523.23;1641449;85;20112;-76
2021/06/02 10:05:06;;;;;;;;;;;;;;;23.81;48.84;101524.87;1648226;87;20121;-76
2021/06/02 10:07:35;;;;;;;;;;;;;;;23.87;48.69;101521.89;1627309;85;20102;-76
2021/06/02 10:10:14;;;;;;;;;;;;;;;23.90;48.86;101520.39;1636419;86;20129;-76
2021/06/02 10:12:43;;;;;;;;;;;;;;;24.04;48.54;101522.22;1622681;85;20129;-76
2021/06/02 10:15:10;;;;;;;;;;;;;;;24.21;48.48;101518.13;1643961;85;20222;-76
2021/06/02 10:17:38;;;;;;;;;;;;;;;24.34;48.15;101515.17;1647221;86;20126;-76
2021/06/02 10:20:12;;;;;;;;;;;;;;;24.43;47.83;101522.53;1635739;86;20101;-76
2021/06/02 10:22:39;;;;;;;;;;;;;;;24.47;47.45;101524.52;1645458;86;20114;-76
2021/06/02 10:25:10;;;;;;;;;;;;;;;24.43;47.53;101523.03;1646877;86;20135;-76
2021/06/02 10:27:36;;;;;;;;;;;;;;;24.48;47.33;101522.73;1631537;87;20131;-76
2021/06/02 10:30:06;;;;;;;;;;;;;;;24.48;47.16;101524.91;1630976;86;20100;-76
2021/06/02 10:32:33;;;;;;;;;;;;;;;24.47;47.18;101524.52;1646852;85;20106;-76
2021/06/02 10:34:59;;;;;;;;;;;;;;;24.38;46.93;101519.81;1647499;86;20134;-76
2021/06/02 10:37:25;;;;;;;;;;;;;;;24.20;46.76;101520.86;1641462;86;20128;-76
2021/06/02 10:40:00;;;;;;;;;;;;;;;24.15;47.21;101525.09;1608916;87;20758;-76
2021/06/02 10:42:41;;;;;;;;;;;;;;;24.09;46.88;101524.13;1627520;87;20093;-76
2021/06/02 10:45:16;;;;;;;;;;;;;;;24.05;46.56;101519.48;1630562;86;20130;-76
2021/06/02 10:47:43;;;;;;;;;;;;;;;24.02;46.64;101526.73;1628935;87;20129;-76
2021/06/02 10:50:30;;;;;;;;;;;;;;;24.02;46.49;101517.02;1637711;86;20135;-76
2021/06/02 10:52:56;;;;;;;;;;;;;;;24.09;46.54;101524.97;1618131;87;20178;-76
2021/06/02 10:55:37;;;;;;;;;;;;;;;23.98;46.02;101519.45;1612943;87;20109;-76
2021/06/02 10:58:20;;;;;;;;;;;;;;;23.85;45.90;101524.23;1618397;87;20134;-76
2021/06/02 11:00:50;;;;;;;;;;;;;;;23.76;46.09;101522.50;1616790;87;20161;-76
2021/06/02 11:03:20;;;;;;;;;;;;;;;23.80;46.45;101519.22;1616644;88;20213;-76
2021/06/02 11:05:48;;;;;;;;;;;;;;;23.96;46.01;101514.73;1616374;88;20221;-76
2021/06/02 11:08:16;;;;;;;;;;;;;;;24.00;45.65;101520.22;1615972;88;20200;-76
2021/06/02 11:10:46;;;;;;;;;;;;;;;24.00;45.86;101517.58;1615713;87;20204;-76
2021/06/02 11:13:12;;;;;;;;;;;;;;;24.06;45.72;101520.33;1615465;87;20215;-76
2021/06/02 11:15:44;;;;;;;;;;;;;;;23.94;45.51;101525.85;1616089;88;20180;-76
2021/06/02 11:18:16;;;;;;;;;;;;;;;23.78;45.35;101526.84;1572963;90;20226;-76
2021/06/02 11:20:45;;;;;;;;;;;;;;;23.62;45.32;101525.53;1570134;89;20237;-76
2021/06/02 11:23:13;;;;;;;;;;;;;;;23.46;45.09;101528.13;1568837;90;20293;-76
2021/06/02 11:25:40;;;;;;;;;;;;;;;23.28;45.07;101526.53;1580409;88;20186;-76
2021/06/02 11:28:07;;;;;;;;;;;;;;;23.19;45.13;101531.84;1588957;88;20191;-76
2021/06/02 11:30:35;;;;;;;;;;;;;;;23.18;45.19;101529.28;1587577;88;20233;-76
2021/06/02 11:33:09;;;;;;;;;;;;;;;23.25;45.32;101529.34;1585687;88;20122;-76
2021/06/02 11:35:55;;;;;;;;;;;;;;;23.23;45.08;101535.16;1592693;89;20229;-76
2021/06/02 11:38:26;;;;;;;;;;;;;;;23.21;44.80;101525.16;1588526;88;20214;-76
2021/06/02 11:40:52;;;;;;;;;;;;;;;23.12;44.68;101525.19;1586635;89;20862;-76
2021/06/02 11:43:19;;;;;;;;;;;;;;;22.98;44.68;101525.92;1590388;89;20162;-76
2021/06/02 11:45:48;;;;;;;;;;;;;;;22.93;44.72;101524.46;1592645;88;20214;-76
2021/06/02 11:48:23;;;;;;;;;;;;;;;22.95;44.86;101533.14;1593529;88;20128;-76
2021/06/02 11:50:50;;;;;;;;;;;;;;;23.02;44.76;101534.06;1587784;88;20107;-77
2021/06/02 11:53:16;;;;;;;;;;;;;;;23.00;44.51;101533.75;1594471;88;20137;-77
2021/06/02 11:55:45;;;;;;;;;;;;;;;23.02;44.37;101531.42;1594131;88;20115;-76
2021/06/02 11:58:11;;;;;;;;;;;;;;;23.02;44.37;101538.02;1586239;89;20409;-76
2021/06/02 12:00:37;;;;;;;;;;;;;;;22.98;44.36;101541.75;1590070;88;20131;-75
2021/06/02 12:03:09;;;;;;;;;;;;;;;22.95;44.45;101534.00;1588213;88;20105;-75
2021/06/02 12:05:39;;;;;;;;;;;;;;;22.93;44.16;101532.37;1591307;88;20136;-75
2021/06/02 12:08:13;;;;;;;;;;;;;;;22.89;43.98;101525.56;1594427;88;20455;-75
2021/06/02 12:10:47;;;;;;;;;;;;;;;22.89;44.19;101525.09;1594107;90;20115;-75
2021/06/02 12:13:15;;;;;;;;;;;;;;;22.94;44.34;101525.70;1581509;89;20125;-76
2021/06/02 12:15:46;;;;;;;;;;;;;;;23.05;44.08;101530.41;1592581;88;20189;-75
2021/06/02 12:18:34;;;;;;;;;;;;;;;23.03;43.79;101527.84;1591315;88;20095;-75
2021/06/02 12:21:08;;;;;;;;;;;;;;;22.99;43.79;101534.69;1589434;89;20538;-75
2021/06/02 12:23:35;;;;;;;;;;;;;;;23.05;43.98;101530.41;1593333;88;20110;-75
2021/06/02 12:26:01;;;;;;;;;;;;;;;23.11;43.62;101528.30;1582302;88;20470;-77
2021/06/02 12:28:27;;;;;;;;;;;;;;;23.16;43.55;101528.05;1586881;88;20104;-75
2021/06/02 12:30:53;;;;;;;;;;;;;;;23.28;43.45;101534.45;1590658;88;20142;-74
2021/06/02 12:33:19;;;;;;;;;;;;;;;23.39;43.17;101527.65;1587693;88;20131;-74
2021/06/02 12:35:46;;;;;;;;;;;;;;;23.44;43.34;101528.69;1588834;88;20801;-74
2021/06/02 12:38:18;;;;;;;;;;;;;;;23.53;43.22;101528.21;1590779;88;20119;-74
2021/06/02 12:40:46;;;;;;;;;;;;;;;23.68;43.30;101519.91;1592462;88;20517;-74
2021/06/02 12:43:14;;;;;;;;;;;;;;;23.89;43.17;101521.80;1577405;88;20123;-74
2021/06/02 12:45:41;;;;;;;;;;;;;;;24.03;43.18;101521.83;1586620;88;20119;-74
2021/06/02 12:48:08;;;;;;;;;;;;;;;24.16;42.98;101523.30;1581702;88;20188;-74
2021/06/02 12:50:39;;;;;;;;;;;;;;;24.21;42.72;101514.63;1592171;88;20103;-74
2021/06/02 12:53:06;;;;;;;;;;;;;;;24.28;42.80;101525.25;1587000;88;20103;-74
2021/06/02 12:55:35;;;;;;;;;;;;;;;24.35;42.43;101530.09;1587839;89;20143;-74
2021/06/02 12:58:08;;;;;;;;;;;;;;;24.43;42.61;101531.44;1581602;88;20494;-74
2021/06/02 13:00:34;;;;;;;;;;;;;;;24.54;42.44;101535.11;1591348;88;20127;-74
2021/06/02 13:03:02;;;;;;;;;;;;;;;24.59;42.52;101526.44;1586946;88;20211;-74
2021/06/02 13:05:28;;;;;;;;;;;;;;;24.75;42.44;101529.00;1589662;88;20225;-74
2021/06/02 13:08:01;;;;;;;;;;;;;;;24.89;42.68;101525.05;1586972;88;20198;-74
2021/06/02 13:10:31;;;;;;;;;;;;;;;25.01;42.32;101521.65;1588078;88;20221;-74
2021/06/02 13:12:59;;;;;;;;;;;;;;;25.14;42.15;101532.33;1585242;88;20535;-74
2021/06/02 13:15:28;;;;;;;;;;;;;;;25.08;42.00;101529.59;1590362;88;20173;-74